ZHB YPJT-YPJT
Flight info
| Callsign | ZHB |
|---|---|
| Flight time | 0h 6m |
| Altitude | 1500 |
| Route | JT |
| Aircraft | C172/L-SFG/C |
Departure
| Time | 2026-04-25 06:17 |
|---|---|
| Airport | Perth Jandakot Airport (YPJT) |
Arrival
| Time | 2026-04-25 06:23 |
|---|---|
| Airport | Perth Jandakot Airport (YPJT) |
| Time | Latitude | Longitude | Altitude | Speed | Heading |
|---|---|---|---|---|---|
| 2026-04-25 06:16 | -31.97198 | 115.95480 | 1565 ft | 101 kts | 199° |
| 2026-04-25 06:17 | -31.97872 | 115.95194 | 1513 ft | 104 kts | 200° |
| 2026-04-25 06:17 | -31.98531 | 115.94946 | 1554 ft | 96 kts | 196° |
| 2026-04-25 06:17 | -31.99193 | 115.94706 | 1503 ft | 100 kts | 198° |
| 2026-04-25 06:17 | -31.99850 | 115.94466 | 1511 ft | 100 kts | 197° |
| 2026-04-25 06:18 | -32.00514 | 115.94191 | 1524 ft | 99 kts | 200° |
| 2026-04-25 06:18 | -32.01181 | 115.93888 | 1451 ft | 106 kts | 201° |
| 2026-04-25 06:18 | -32.01865 | 115.93561 | 1425 ft | 103 kts | 202° |
| 2026-04-25 06:18 | -32.02512 | 115.93260 | 1435 ft | 100 kts | 200° |
| 2026-04-25 06:19 | -32.03170 | 115.92949 | 1392 ft | 102 kts | 204° |
| 2026-04-25 06:19 | -32.03808 | 115.92590 | 1408 ft | 100 kts | 204° |
| 2026-04-25 06:19 | -32.04437 | 115.92238 | 1330 ft | 103 kts | 207° |
| 2026-04-25 06:19 | -32.05086 | 115.91858 | 1218 ft | 102 kts | 207° |
| 2026-04-25 06:20 | -32.05684 | 115.91524 | 1170 ft | 88 kts | 204° |
| 2026-04-25 06:20 | -32.06247 | 115.91241 | 1041 ft | 86 kts | 199° |
| 2026-04-25 06:20 | -32.06776 | 115.91027 | 908 ft | 78 kts | 200° |
| 2026-04-25 06:20 | -32.07293 | 115.90789 | 752 ft | 78 kts | 205° |
| 2026-04-25 06:21 | -32.07733 | 115.90529 | 714 ft | 59 kts | 210° |
| 2026-04-25 06:21 | -32.08093 | 115.90262 | 572 ft | 63 kts | 213° |
| 2026-04-25 06:21 | -32.08427 | 115.89934 | 462 ft | 65 kts | 224° |
| 2026-04-25 06:21 | -32.08724 | 115.89535 | 427 ft | 63 kts | 230° |
| 2026-04-25 06:22 | -32.08972 | 115.89149 | 329 ft | 60 kts | 231° |
| 2026-04-25 06:22 | -32.09219 | 115.88748 | 216 ft | 59 kts | 234° |
| 2026-04-25 06:23 | -32.09439 | 115.88370 | 94 ft | 47 kts | 234° |
| 2026-04-25 06:23 | -32.09573 | 115.88157 | 94 ft | 32 kts | 234° |
| 2026-04-25 06:23 | -32.09787 | 115.87797 | 126 ft | 69 kts | 236° |
| 2026-04-25 06:23 | -32.10073 | 115.87264 | 292 ft | 80 kts | 237° |
| 2026-04-25 06:24 | -32.10383 | 115.86742 | 546 ft | 77 kts | 232° |
| 2026-04-25 06:24 | -32.10747 | 115.86270 | 785 ft | 78 kts | 224° |
| 2026-04-25 06:24 | -32.11135 | 115.85806 | 992 ft | 84 kts | 224° |
| 2026-04-25 06:24 | -32.11579 | 115.85235 | 1008 ft | 102 kts | 227° |
| 2026-04-25 06:25 | -32.11969 | 115.84537 | 1049 ft | 112 kts | 242° |
| 2026-04-25 06:25 | -32.12320 | 115.83685 | 919 ft | 117 kts | 238° |
| 2026-04-25 06:25 | -32.12498 | 115.82851 | 1207 ft | 84 kts | 220° |
| 2026-04-25 06:25 | -32.13043 | 115.82754 | 1415 ft | 87 kts | 171° |
| 2026-04-25 06:26 | -32.13677 | 115.82934 | 1455 ft | 106 kts | 165° |
| 2026-04-25 06:26 | -32.14383 | 115.83173 | 1548 ft | 112 kts | 163° |
| 2026-04-25 06:26 | -32.15137 | 115.83441 | 1586 ft | 115 kts | 165° |
| 2026-04-25 06:26 | -32.15852 | 115.83694 | 1895 ft | 84 kts | 163° |
| 2026-04-25 06:27 | -32.16353 | 115.83882 | 2150 ft | 80 kts | 165° |
| 2026-04-25 06:27 | -32.16925 | 115.84080 | 2296 ft | 86 kts | 166° |
| 2026-04-25 06:27 | -32.17506 | 115.84228 | 2447 ft | 93 kts | 169° |
| 2026-04-25 06:27 | -32.18174 | 115.84376 | 2517 ft | 102 kts | 172° |
| 2026-04-25 06:28 | -32.18897 | 115.84469 | 2534 ft | 110 kts | 173° |
| 2026-04-25 06:28 | -32.19564 | 115.84587 | 3015 ft | 60 kts | 169° |
| 2026-04-25 06:28 | -32.20027 | 115.84735 | 3032 ft | 90 kts | 166° |
| 2026-04-25 06:28 | -32.20685 | 115.84943 | 3021 ft | 105 kts | 166° |
| 2026-04-25 06:29 | -32.21426 | 115.85186 | 2965 ft | 117 kts | 166° |
| 2026-04-25 06:29 | -32.22219 | 115.85454 | 3083 ft | 106 kts | 165° |
| 2026-04-25 06:29 | -32.22917 | 115.85712 | 3234 ft | 103 kts | 165° |
| 2026-04-25 06:29 | -32.23524 | 115.85981 | 3551 ft | 89 kts | 156° |
| 2026-04-25 06:30 | -32.24080 | 115.86347 | 3677 ft | 94 kts | 155° |
| 2026-04-25 06:30 | -32.24677 | 115.86655 | 3822 ft | 97 kts | 159° |
| 2026-04-25 06:30 | -32.25295 | 115.87078 | 3541 ft | 106 kts | 150° |
| 2026-04-25 06:30 | -32.25766 | 115.87497 | 3592 ft | 77 kts | 143° |
| 2026-04-25 06:31 | -32.26203 | 115.87961 | 3297 ft | 85 kts | 141° |
| 2026-04-25 06:31 | -32.26652 | 115.88443 | 2993 ft | 93 kts | 145° |
| 2026-04-25 06:31 | -32.27222 | 115.88733 | 2712 ft | 89 kts | 182° |
| 2026-04-25 06:31 | -32.27753 | 115.88622 | 2584 ft | 78 kts | 205° |
| 2026-04-25 06:32 | -32.28239 | 115.88694 | 2338 ft | 82 kts | 124° |
| 2026-04-25 06:32 | -32.28187 | 115.89380 | 1745 ft | 88 kts | 108° |
| 2026-04-25 06:32 | -32.28246 | 115.90109 | 1107 ft | 91 kts | 124° |
| 2026-04-25 06:32 | -32.28451 | 115.90799 | 463 ft | 91 kts | 134° |
| 2026-04-25 06:33 | -32.28683 | 115.91453 | 307 ft | 78 kts | 122° |
| 2026-04-25 06:33 | -32.28920 | 115.91992 | 463 ft | 77 kts | 133° |
| 2026-04-25 06:33 | -32.29258 | 115.92544 | 599 ft | 85 kts | 144° |
| 2026-04-25 06:33 | -32.29273 | 115.92561 | 606 ft | 84 kts | 146° |